TAF LFSG
METAR LFSG
LFSG 280730Z AUTO 20007KT 1300 R26/1800D SN BR BKN007/// BKN013/// OVC019/// ///TCU 00/M00 Q0996=
LFSG 280700Z AUTO 19006KT 6000 -SN FEW008/// BKN020/// BKN025/// ///TCU 00/M00 Q0995=
LFSG 280630Z AUTO 19008KT 2500 +SN BR SCT009/// BKN014/// BKN019/// ///TCU 00/M00 Q0995=
LFSG 280600Z AUTO 20008KT 6000 -SN OVC019 00/00 Q0995=
LFSG 280530Z AUTO 19008KT 9000 -SN BKN023/// OVC031/// ///TCU 00/M00 Q0995=
WC LFSG
WS LFSG
WV LFSG